Latest Weather Observations for Tibooburra Airport

IDN60801

Issued at 9:35 pm EST Thursday 21 August 2014 (issued every 30 minutes, with the page automatically refreshed every 10 minutes)

About weather observations | Map of weather stations | Latest weather observations for NSW | Other Formats
Station Details ID: 046126 Name: TIBOOBURRA AIRPORT Lat: -29.44 Lon: 142.06 Height: 176.4 m
Data from the previous 72 hours. | See also: Recent months for locations in New South Wales
Date/Time
EST
Temp
°C
App
Temp
°C
Dew
Point
Rel
Hum
%
Delta-T
°C
Wind Press
QNH
hPa
Press
MSL
hPa
Rain
since 9 am
mm
Dir
 
Spd
km/h
Gust
km/h
Spd
kts
Gust
kts
21/09:30pm 13.5 9.6 3.6 51 4.5 SSE 13 15 7 8 1024.2 - 0.0
21/09:00pm 14.1 10.2 3.3 48 4.9 SSE 13 17 7 9 1024.2 1024.1 0.0
21/08:30pm 14.4 10.1 3.5 48 5.0 SSE 15 19 8 10 1024.0 - 0.0
21/08:00pm 14.6 10.8 3.7 48 5.0 SSE 13 17 7 9 1023.9 1023.8 0.0
21/07:30pm 15.5 11.6 3.6 45 5.5 SE 13 15 7 8 1023.5 - 0.0
21/07:00pm 16.1 12.2 3.2 42 5.9 SE 13 17 7 9 1023.1 1023.0 0.0
21/06:30pm 16.9 12.2 2.9 39 6.5 SE 17 28 9 15 1022.8 - 0.0
21/06:00pm 17.7 12.9 2.5 36 7.0 SE 17 22 9 12 1022.3 1022.2 0.0
21/05:30pm 18.4 12.4 1.0 31 7.8 SE 22 30 12 16 1021.8 - 0.0
21/05:00pm 18.9 12.9 1.0 30 8.0 SE 22 32 12 17 1021.5 1021.4 0.0
21/04:30pm 19.1 13.4 0.7 29 8.3 SE 20 30 11 16 1021.5 - 0.0
21/04:00pm 19.6 13.3 -0.9 25 8.9 ESE 22 30 12 16 1021.3 1021.2 0.0
21/03:30pm 19.4 13.7 0.4 28 8.5 SSE 20 32 11 17 1021.4 - 0.0
21/03:00pm 18.8 12.5 1.8 32 7.7 SSE 24 35 13 19 1021.5 1021.4 0.0
21/02:30pm 19.3 13.4 1.8 31 8.0 SSE 22 33 12 18 1021.6 - 0.0
21/02:00pm 19.4 13.6 2.3 32 7.9 SE 22 32 12 17 1021.9 1021.9 0.0
21/01:30pm 19.1 13.2 2.0 32 7.9 ESE 22 32 12 17 1022.3 - 0.0
21/01:00pm 19.1 13.4 2.9 34 7.6 SE 22 33 12 18 1022.8 1022.7 0.0
21/12:30pm 18.9 13.1 2.3 33 7.7 SE 22 33 12 18 1023.5 - 0.0
21/12:00pm 18.8 13.6 3.4 36 7.2 ESE 20 30 11 16 1023.8 1023.7 0.0
21/11:30am 18.3 12.8 4.1 39 6.8 ESE 22 30 12 16 1024.2 - 0.0
21/11:00am 17.6 12.5 4.2 41 6.3 ESE 20 26 11 14 1024.6 1024.5 0.0
21/10:30am 16.8 12.2 5.4 47 5.5 E 19 24 10 13 1024.8 - 0.0
21/10:00am 15.7 11.5 5.6 51 4.9 E 17 22 9 12 1024.9 1024.8 0.0
21/09:30am 14.6 10.6 5.1 53 4.5 E 15 19 8 10 1025.0 - 0.0
21/09:00am 14.0 10.4 5.1 55 4.2 E 13 20 7 11 1024.9 1024.8 0.0
21/08:30am 13.1 10.4 5.8 61 3.5 ENE 9 13 5 7 1024.6 - 0.0
21/08:00am 11.3 9.3 6.2 71 2.4 E 6 7 3 4 1024.1 1024.0 0.0
21/07:30am 9.4 7.0 5.4 76 1.8 ESE 7 9 4 5 1023.9 - 0.0
21/07:00am 9.7 6.2 5.3 74 2.0 E 13 15 7 8 1023.6 1023.5 0.0
21/06:30am 10.1 7.4 5.5 73 2.1 E 9 13 5 7 1023.3 - 0.0
21/06:00am 10.5 7.8 5.7 72 2.2 ESE 9 13 5 7 1023.1 1023.0 0.0
21/05:30am 10.7 8.4 5.7 71 2.3 ESE 7 11 4 6 1023.0 - 0.0
21/05:00am 11.2 8.5 5.7 69 2.6 ESE 9 13 5 7 1022.9 1022.8 0.0
21/04:30am 11.7 8.9 6.8 72 2.4 SE 11 15 6 8 1022.8 - 0.0
21/04:00am 11.7 9.7 7.0 73 2.3 SE 7 13 4 7 1022.7 1022.6 0.0
21/03:30am 11.7 9.9 7.0 73 2.3 S 6 9 3 5 1022.5 - 0.0
21/03:00am 12.3 10.3 7.2 71 2.5 S 7 9 4 5 1022.6 1022.5 0.0
21/02:30am 12.8 9.8 7.7 71 2.5 SSE 13 15 7 8 1022.7 - 0.0
21/02:00am 13.2 10.8 7.2 67 2.9 S 9 13 5 7 1023.0 1022.9 0.0
21/01:30am 13.4 11.0 7.0 65 3.1 SSE 9 13 5 7 1023.1 - 0.0
21/01:00am 13.4 10.2 7.0 65 3.1 SE 13 17 7 9 1023.1 1023.0 0.0
21/12:30am 13.0 9.8 7.0 67 2.9 SE 13 15 7 8 1023.0 - 0.0
21/12:00am 13.2 10.8 7.0 66 3.0 ESE 9 11 5 6 1023.1 1023.0 0.0
 
Date/Time
EST
Temp
°C
App
Temp
°C
Dew
Point
Rel
Hum
%
Delta-T
°C
Wind Press
QNH
hPa
Press
MSL
hPa
Rain
since 9 am
mm
Dir
 
Spd
km/h
Gust
km/h
Spd
kts
Gust
kts
20/11:30pm 13.4 11.1 7.4 67 3.0 ESE 9 13 5 7 1023.3 - 0.0
20/11:00pm 13.5 11.7 7.9 69 2.8 SSE 7 9 4 5 1023.3 1023.2 0.0
20/10:30pm 14.3 11.8 8.0 66 3.2 SE 11 13 6 7 1023.5 - 0.0
20/10:00pm 14.4 10.7 8.1 66 3.2 SE 17 24 9 13 1023.6 1023.5 0.0
20/09:30pm 14.5 12.5 8.7 68 3.0 S 9 9 5 5 1023.4 - 0.0
20/09:00pm 14.7 13.0 8.4 66 3.2 S 7 11 4 6 1023.3 1023.2 0.0
20/08:30pm 15.0 13.0 8.5 65 3.3 S 9 9 5 5 1023.1 - 0.0
20/08:00pm 15.4 13.2 7.9 61 3.8 SSE 9 11 5 6 1022.9 1022.8 0.0
20/07:30pm 15.4 13.2 7.7 60 3.9 SSE 9 11 5 6 1022.5 - 0.0
20/07:00pm 15.9 13.6 7.4 57 4.2 SSE 9 11 5 6 1022.2 1022.1 0.0
20/06:30pm 16.5 13.3 6.9 53 4.8 SSE 13 15 7 8 1021.8 - 0.0
20/06:00pm 17.4 14.1 6.6 49 5.4 SSE 13 19 7 10 1021.4 1021.3 0.0
20/05:30pm 18.1 15.5 6.3 46 5.9 SSE 9 17 5 9 1021.2 - 0.0
20/05:00pm 17.9 14.5 5.8 45 5.9 SE 13 19 7 10 1021.1 1021.0 0.0
20/04:30pm 18.7 15.7 5.9 43 6.4 SSE 11 19 6 10 1020.9 - 0.0
20/04:00pm 18.5 15.4 5.7 43 6.3 SSE 11 17 6 9 1021.0 1020.9 0.0
20/03:30pm 18.5 16.3 5.4 42 6.4 ENE 6 11 3 6 1021.1 - 0.0
20/03:00pm 17.7 15.1 5.9 46 5.8 SSE 9 15 5 8 1021.4 1021.3 0.0
20/02:30pm 18.8 16.9 6.6 45 6.1 SSW 6 15 3 8 1021.5 - 0.0
20/02:00pm 17.2 14.7 6.7 50 5.2 S 9 17 5 9 1021.8 1021.8 0.0
20/01:30pm 17.6 16.6 7.4 51 5.2 S 2 13 1 7 1022.3 - 0.0
20/01:00pm 18.3 17.0 7.7 50 5.4 SE 4 7 2 4 1022.8 1022.7 0.0
20/12:30pm 17.3 14.2 7.1 51 5.1 E 13 19 7 10 1023.3 - 0.0
20/12:00pm 16.9 14.7 7.8 55 4.6 E 9 15 5 8 1023.7 1023.6 0.0
20/11:30am 16.5 14.0 8.0 57 4.3 E 11 17 6 9 1024.0 - 0.0
20/11:00am 16.2 13.4 8.7 61 3.9 ESE 13 19 7 10 1024.2 1024.1 0.0
20/10:30am 15.3 12.9 8.5 64 3.5 E 11 17 6 9 1024.4 - 0.0
20/10:00am 14.2 11.8 8.6 69 2.8 SE 11 15 6 8 1024.4 1024.3 0.0
20/09:30am 12.8 9.9 8.1 73 2.3 SE 13 15 7 8 1024.3 - 0.0
20/09:00am 11.1 8.6 8.0 81 1.5 SSE 11 13 6 7 1024.4 1024.3 0.0
20/08:30am 9.3 7.6 7.7 90 0.8 SSW 6 9 3 5 1024.2 - 0.0
20/08:00am 7.7 5.6 6.8 94 0.4 WSW 7 9 4 5 1024.0 1023.9 0.0
20/07:30am 6.2 3.2 5.8 97 0.2 WSW 11 11 6 6 1023.8 - 0.0
20/07:00am 5.8 2.7 5.4 97 0.2 WSW 11 13 6 7 1023.6 1023.5 0.0
20/06:30am 5.9 3.1 5.3 96 0.3 WSW 9 11 5 6 1023.3 - 0.0
20/06:00am 6.0 2.8 5.3 95 0.3 WSW 11 13 6 7 1023.1 1023.0 0.0
20/05:30am 6.1 2.9 5.1 93 0.4 WSW 11 13 6 7 1022.9 - 0.0
20/05:00am 6.3 3.1 4.9 91 0.6 WSW 11 13 6 7 1022.6 1022.5 0.0
20/04:30am 6.4 2.8 4.9 90 0.7 WSW 13 13 7 7 1022.5 - 0.0
20/04:00am 6.6 3.3 4.8 88 0.8 WSW 11 13 6 7 1022.4 1022.3 0.0
20/03:30am 6.8 3.5 4.8 87 0.9 WSW 11 13 6 7 1022.4 - 0.0
20/03:00am 7.0 3.7 4.8 86 1.0 WSW 11 13 6 7 1022.5 1022.4 0.0
20/02:30am 7.2 4.0 4.9 85 1.0 WSW 11 13 6 7 1022.8 - 0.0
20/02:00am 7.4 4.2 5.0 85 1.1 WSW 11 13 6 7 1022.8 1022.7 0.0
20/01:30am 7.5 4.3 5.1 85 1.1 WSW 11 13 6 7 1022.9 - 0.0
20/01:00am 7.8 4.6 5.1 83 1.2 WSW 11 13 6 7 1022.9 1022.8 0.0
20/12:30am 8.3 5.1 4.9 79 1.5 WSW 11 13 6 7 1023.0 - 0.0
20/12:00am 8.8 6.0 5.0 77 1.7 SW 9 9 5 5 1023.2 1023.1 0.0
 
Date/Time
EST
Temp
°C
App
Temp
°C
Dew
Point
Rel
Hum
%
Delta-T
°C
Wind Press
QNH
hPa
Press
MSL
hPa
Rain
since 9 am
mm
Dir
 
Spd
km/h
Gust
km/h
Spd
kts
Gust
kts
19/11:30pm 9.4 6.6 5.0 74 2.0 SSW 9 11 5 6 1023.1 - 0.0
19/11:00pm 9.6 6.9 5.4 75 1.9 SSW 9 9 5 5 1023.2 1023.1 0.0
19/10:30pm 10.0 7.2 5.2 72 2.2 SSW 9 11 5 6 1023.3 - 0.0
19/10:00pm 10.2 7.5 5.4 72 2.2 SSW 9 9 5 5 1023.2 1023.1 0.0
19/09:30pm 10.5 7.8 5.5 71 2.3 SSW 9 11 5 6 1023.3 - 0.0
19/09:00pm 10.9 8.2 5.4 69 2.5 SSW 9 11 5 6 1023.2 1023.1 0.0
19/08:30pm 11.3 8.5 5.2 66 2.8 S 9 11 5 6 1023.1 - 0.0
19/08:00pm 11.9 9.1 5.1 63 3.1 S 9 11 5 6 1022.8 1022.7 0.0
19/07:30pm 12.4 9.2 5.3 62 3.3 S 11 13 6 7 1022.5 - 0.0
19/07:00pm 13.6 9.9 4.7 55 4.1 S 13 17 7 9 1022.0 1022.0 0.0
19/06:30pm 14.0 10.3 4.6 53 4.4 S 13 17 7 9 1021.7 - 0.0
19/06:00pm 14.9 10.7 4.0 48 5.0 S 15 19 8 10 1021.3 1021.2 0.0
19/05:30pm 15.6 11.0 3.7 45 5.5 S 17 24 9 13 1021.1 - 0.0
19/05:00pm 15.9 11.6 3.0 42 5.9 S 15 20 8 11 1021.1 1021.0 0.0
19/04:30pm 16.1 11.8 3.5 43 5.8 S 15 28 8 15 1021.1 - 0.0
19/04:00pm 16.3 12.5 3.7 43 5.9 S 13 20 7 11 1021.1 1021.0 0.0
19/03:30pm 16.1 12.2 3.5 43 5.8 SSW 13 20 7 11 1021.1 - 0.0
19/03:00pm 16.0 11.8 3.8 44 5.7 SSW 15 20 8 11 1021.3 1021.2 0.0
19/02:30pm 16.1 12.8 4.5 46 5.5 S 11 15 6 8 1021.4 - 0.0
19/02:00pm 15.5 11.3 3.9 46 5.4 SSW 15 22 8 12 1021.6 1021.5 0.0
19/01:30pm 14.7 10.1 3.5 47 5.1 SSW 17 24 9 13 1021.8 - 0.0
19/01:00pm 15.2 11.8 4.0 47 5.2 SSW 11 22 6 12 1022.2 1022.1 0.0
19/12:30pm 14.6 10.3 3.4 47 5.1 SSW 15 22 8 12 1022.8 - 0.0
19/12:00pm 14.6 10.6 4.9 52 4.6 S 15 24 8 13 1023.2 1023.1 0.0
19/11:30am 13.8 9.9 5.2 56 4.1 SSE 15 20 8 11 1023.6 - 0.0
19/11:00am 12.9 9.4 5.6 61 3.4 S 13 17 7 9 1023.9 1023.8 0.0
19/10:30am 11.6 7.5 4.6 62 3.2 S 15 20 8 11 1024.1 - 0.0
19/10:00am 10.9 6.1 4.6 65 2.9 S 19 24 10 13 1024.1 1024.0 0.0
19/09:30am 10.1 4.6 4.0 66 2.7 S 22 28 12 15 1024.0 - 0.0
19/09:00am 9.5 4.6 4.3 70 2.3 S 19 26 10 14 1023.8 1023.7 0.0
19/08:30am 8.1 3.1 3.8 74 1.9 S 19 22 10 12 1023.5 - 0.0
19/08:00am 7.1 1.9 3.3 77 1.6 S 20 24 11 13 1023.1 1023.0 0.0
19/07:30am 6.3 1.7 3.5 82 1.2 S 17 20 9 11 1023.1 - 0.0
19/07:00am 5.9 1.2 3.4 84 1.1 SSW 17 20 9 11 1022.7 1022.6 0.0
19/06:30am 6.0 1.4 3.5 84 1.1 SSW 17 20 9 11 1022.4 - 0.0
19/06:00am 6.4 1.4 3.7 83 1.1 SSW 19 22 10 12 1022.0 1022.0 0.0
19/05:30am 6.6 1.7 4.1 84 1.1 S 19 24 10 13 1022.0 - 0.0
19/05:00am 6.6 1.7 4.3 85 1.0 SSW 19 24 10 13 1021.9 1021.9 0.0
19/04:30am 6.1 2.4 4.3 88 0.8 SSW 13 19 7 10 1021.7 - 0.0
19/04:00am 6.4 2.7 4.6 88 0.8 SW 13 17 7 9 1021.7 1021.7 0.0
19/03:30am 6.6 2.5 4.4 86 1.0 SW 15 19 8 10 1021.9 - 0.0
19/03:00am 6.9 2.5 4.6 85 1.0 SW 17 19 9 10 1022.0 1022.0 0.0
19/02:30am 7.3 2.9 4.6 83 1.2 SSW 17 20 9 11 1022.2 - 0.0
19/02:00am 7.7 2.9 4.8 82 1.3 SSW 19 22 10 12 1022.2 1022.1 0.0
19/01:30am 7.8 2.9 4.9 82 1.3 SSW 20 24 11 13 1022.3 - 0.0
19/01:00am 8.0 3.2 4.9 81 1.4 SSW 19 22 10 12 1022.5 1022.4 0.0
19/12:30am 8.0 3.7 5.1 82 1.3 SSW 17 20 9 11 1022.7 - 0.0
19/12:00am 8.2 4.2 5.1 81 1.4 SW 15 20 8 11 1022.9 1022.8 0.0
 
Date/Time
EST
Temp
°C
App
Temp
°C
Dew
Point
Rel
Hum
%
Delta-T
°C
Wind Press
QNH
hPa
Press
MSL
hPa
Rain
since 9 am
mm
Dir
 
Spd
km/h
Gust
km/h
Spd
kts
Gust
kts
18/11:30pm 8.6 4.6 5.0 78 1.6 SW 15 20 8 11 1023.1 - 0.0
18/11:00pm 8.8 4.8 5.0 77 1.7 WSW 15 17 8 9 1022.9 1022.8 0.0
18/10:30pm 9.1 4.7 4.9 75 1.9 SW 17 20 9 11 1022.8 - 0.0
18/10:00pm 8.9 4.9 4.9 76 1.8 WSW 15 17 8 9 1022.8 1022.7 0.0

Other Formats:

Comma delimited format used in spreadsheet applications
http://www.bom.gov.au/fwo/IDN60801/IDN60801.95485.axf

JavaScript Object Notation format (JSON) in row-major order
http://www.bom.gov.au/fwo/IDN60801/IDN60801.95485.json